sensor_id;sensor_type;location;lat;lon;timestamp;temperature;humidity
13569;DHT22;6856;51.460;7.158;2023-03-14T00:01:45;14.70;58.60
13569;DHT22;6856;51.460;7.158;2023-03-14T00:04:20;14.70;58.30
13569;DHT22;6856;51.460;7.158;2023-03-14T00:06:56;14.70;58.40
13569;DHT22;6856;51.460;7.158;2023-03-14T00:09:30;14.70;58.60
13569;DHT22;6856;51.460;7.158;2023-03-14T00:12:05;14.60;58.00
13569;DHT22;6856;51.460;7.158;2023-03-14T00:14:40;14.60;58.80
13569;DHT22;6856;51.460;7.158;2023-03-14T00:17:16;14.60;58.50
13569;DHT22;6856;51.460;7.158;2023-03-14T00:19:51;14.60;58.20
13569;DHT22;6856;51.460;7.158;2023-03-14T00:22:27;14.60;58.50
13569;DHT22;6856;51.460;7.158;2023-03-14T00:25:01;14.60;58.50
13569;DHT22;6856;51.460;7.158;2023-03-14T00:27:36;14.60;58.70
13569;DHT22;6856;51.460;7.158;2023-03-14T00:30:11;14.50;58.60
13569;DHT22;6856;51.460;7.158;2023-03-14T00:32:45;14.60;58.70
13569;DHT22;6856;51.460;7.158;2023-03-14T00:35:19;14.50;58.70
13569;DHT22;6856;51.460;7.158;2023-03-14T00:37:56;14.50;58.80
13569;DHT22;6856;51.460;7.158;2023-03-14T00:40:33;14.50;58.50
13569;DHT22;6856;51.460;7.158;2023-03-14T00:43:08;14.50;58.60
13569;DHT22;6856;51.460;7.158;2023-03-14T00:45:42;14.60;58.90
13569;DHT22;6856;51.460;7.158;2023-03-14T00:48:16;14.50;58.70
13569;DHT22;6856;51.460;7.158;2023-03-14T00:50:50;14.60;58.90
13569;DHT22;6856;51.460;7.158;2023-03-14T00:53:26;14.60;58.80
13569;DHT22;6856;51.460;7.158;2023-03-14T00:56:06;14.50;58.80
13569;DHT22;6856;51.460;7.158;2023-03-14T00:58:41;14.50;59.30
13569;DHT22;6856;51.460;7.158;2023-03-14T01:01:20;14.60;59.40
13569;DHT22;6856;51.460;7.158;2023-03-14T01:03:55;14.50;59.20
13569;DHT22;6856;51.460;7.158;2023-03-14T01:06:30;14.50;59.40
13569;DHT22;6856;51.460;7.158;2023-03-14T01:09:05;14.40;59.40
13569;DHT22;6856;51.460;7.158;2023-03-14T01:11:39;14.30;59.20
13569;DHT22;6856;51.460;7.158;2023-03-14T01:14:14;14.20;58.80
13569;DHT22;6856;51.460;7.158;2023-03-14T01:16:48;14.10;59.00
13569;DHT22;6856;51.460;7.158;2023-03-14T01:19:23;14.00;59.40
13569;DHT22;6856;51.460;7.158;2023-03-14T01:21:57;13.90;59.00
13569;DHT22;6856;51.460;7.158;2023-03-14T01:24:34;13.80;60.10
13569;DHT22;6856;51.460;7.158;2023-03-14T01:27:09;13.70;60.20
13569;DHT22;6856;51.460;7.158;2023-03-14T01:29:44;13.60;60.30
13569;DHT22;6856;51.460;7.158;2023-03-14T01:32:19;13.50;60.70
13569;DHT22;6856;51.460;7.158;2023-03-14T01:34:53;13.40;60.70
13569;DHT22;6856;51.460;7.158;2023-03-14T01:37:27;13.40;61.30
13569;DHT22;6856;51.460;7.158;2023-03-14T01:40:06;13.30;61.70
13569;DHT22;6856;51.460;7.158;2023-03-14T01:42:46;13.30;62.20
13569;DHT22;6856;51.460;7.158;2023-03-14T01:49:03;13.20;62.90
13569;DHT22;6856;51.460;7.158;2023-03-14T01:51:45;13.20;62.80
13569;DHT22;6856;51.460;7.158;2023-03-14T01:54:26;13.10;62.90
13569;DHT22;6856;51.460;7.158;2023-03-14T01:57:10;13.10;62.70
13569;DHT22;6856;51.460;7.158;2023-03-14T01:59:52;13.10;63.20
13569;DHT22;6856;51.460;7.158;2023-03-14T02:02:29;13.00;63.30
13569;DHT22;6856;51.460;7.158;2023-03-14T02:05:04;13.00;64.20
13569;DHT22;6856;51.460;7.158;2023-03-14T02:07:45;13.00;63.50
13569;DHT22;6856;51.460;7.158;2023-03-14T02:10:24;13.00;63.80
13569;DHT22;6856;51.460;7.158;2023-03-14T02:13:05;13.00;63.80
13569;DHT22;6856;51.460;7.158;2023-03-14T02:15:40;12.90;63.70
13569;DHT22;6856;51.460;7.158;2023-03-14T02:18:15;12.90;63.80
13569;DHT22;6856;51.460;7.158;2023-03-14T02:20:55;12.90;63.60
13569;DHT22;6856;51.460;7.158;2023-03-14T02:23:39;12.90;64.00
13569;DHT22;6856;51.460;7.158;2023-03-14T02:26:21;12.90;64.00
13569;DHT22;6856;51.460;7.158;2023-03-14T02:29:03;12.90;63.90
13569;DHT22;6856;51.460;7.158;2023-03-14T02:31:38;12.90;63.90
13569;DHT22;6856;51.460;7.158;2023-03-14T02:34:12;12.80;64.00
13569;DHT22;6856;51.460;7.158;2023-03-14T02:36:47;12.80;64.20
13569;DHT22;6856;51.460;7.158;2023-03-14T02:39:26;12.80;63.90
13569;DHT22;6856;51.460;7.158;2023-03-14T02:42:05;12.80;64.20
13569;DHT22;6856;51.460;7.158;2023-03-14T02:44:59;12.80;64.20
13569;DHT22;6856;51.460;7.158;2023-03-14T02:48:00;12.80;64.60
13569;DHT22;6856;51.460;7.158;2023-03-14T02:50:39;12.80;64.40
13569;DHT22;6856;51.460;7.158;2023-03-14T02:53:17;12.90;64.50
13569;DHT22;6856;51.460;7.158;2023-03-14T02:55:54;12.80;64.70
13569;DHT22;6856;51.460;7.158;2023-03-14T02:58:29;12.80;64.50
13569;DHT22;6856;51.460;7.158;2023-03-14T03:01:05;12.80;64.60
13569;DHT22;6856;51.460;7.158;2023-03-14T03:03:40;12.80;64.60
13569;DHT22;6856;51.460;7.158;2023-03-14T03:06:15;12.80;64.50
13569;DHT22;6856;51.460;7.158;2023-03-14T03:08:49;12.80;64.70
13569;DHT22;6856;51.460;7.158;2023-03-14T03:11:24;12.80;64.60
13569;DHT22;6856;51.460;7.158;2023-03-14T03:13:58;12.80;64.60
13569;DHT22;6856;51.460;7.158;2023-03-14T03:16:35;12.80;64.50
13569;DHT22;6856;51.460;7.158;2023-03-14T03:19:09;12.80;64.40
13569;DHT22;6856;51.460;7.158;2023-03-14T03:21:45;12.80;64.40
13569;DHT22;6856;51.460;7.158;2023-03-14T03:24:19;12.80;65.00
13569;DHT22;6856;51.460;7.158;2023-03-14T03:26:53;12.80;64.40
13569;DHT22;6856;51.460;7.158;2023-03-14T03:29:27;12.80;64.40
13569;DHT22;6856;51.460;7.158;2023-03-14T03:32:02;12.80;64.20
13569;DHT22;6856;51.460;7.158;2023-03-14T03:34:36;12.80;64.30
13569;DHT22;6856;51.460;7.158;2023-03-14T03:37:10;12.80;64.50
13569;DHT22;6856;51.460;7.158;2023-03-14T03:39:44;12.80;64.30
13569;DHT22;6856;51.460;7.158;2023-03-14T03:42:19;12.80;64.30
13569;DHT22;6856;51.460;7.158;2023-03-14T03:44:54;12.80;65.30
13569;DHT22;6856;51.460;7.158;2023-03-14T03:47:30;12.80;64.60
13569;DHT22;6856;51.460;7.158;2023-03-14T03:50:06;12.80;64.50
13569;DHT22;6856;51.460;7.158;2023-03-14T03:52:43;12.80;64.60
13569;DHT22;6856;51.460;7.158;2023-03-14T03:55:17;12.80;64.50
13569;DHT22;6856;51.460;7.158;2023-03-14T03:57:51;12.80;64.50
13569;DHT22;6856;51.460;7.158;2023-03-14T04:00:26;12.80;64.90
13569;DHT22;6856;51.460;7.158;2023-03-14T04:03:05;12.80;65.00
13569;DHT22;6856;51.460;7.158;2023-03-14T04:05:39;12.80;64.90
13569;DHT22;6856;51.460;7.158;2023-03-14T04:08:13;12.80;64.60
13569;DHT22;6856;51.460;7.158;2023-03-14T04:10:47;12.80;65.10
13569;DHT22;6856;51.460;7.158;2023-03-14T04:13:21;12.80;65.20
13569;DHT22;6856;51.460;7.158;2023-03-14T04:15:56;12.80;65.00
13569;DHT22;6856;51.460;7.158;2023-03-14T04:18:32;12.80;65.10
13569;DHT22;6856;51.460;7.158;2023-03-14T04:21:07;12.70;65.00
13569;DHT22;6856;51.460;7.158;2023-03-14T04:23:41;12.70;64.90
13569;DHT22;6856;51.460;7.158;2023-03-14T04:26:15;12.70;64.90
13569;DHT22;6856;51.460;7.158;2023-03-14T04:28:49;12.70;65.00
13569;DHT22;6856;51.460;7.158;2023-03-14T04:31:24;12.70;65.10
13569;DHT22;6856;51.460;7.158;2023-03-14T04:34:01;12.60;65.00
13569;DHT22;6856;51.460;7.158;2023-03-14T04:36:35;12.60;65.00
13569;DHT22;6856;51.460;7.158;2023-03-14T04:39:11;12.60;64.80
13569;DHT22;6856;51.460;7.158;2023-03-14T04:41:45;12.60;65.00
13569;DHT22;6856;51.460;7.158;2023-03-14T04:44:19;12.50;64.70
13569;DHT22;6856;51.460;7.158;2023-03-14T04:46:53;12.50;64.90
13569;DHT22;6856;51.460;7.158;2023-03-14T04:49:29;12.40;65.10
13569;DHT22;6856;51.460;7.158;2023-03-14T04:52:03;12.40;65.00
13569;DHT22;6856;51.460;7.158;2023-03-14T04:54:37;12.40;65.10
13569;DHT22;6856;51.460;7.158;2023-03-14T04:57:11;12.40;64.90
13569;DHT22;6856;51.460;7.158;2023-03-14T04:59:45;12.30;65.20
13569;DHT22;6856;51.460;7.158;2023-03-14T05:02:19;12.50;64.80
13569;DHT22;6856;51.460;7.158;2023-03-14T05:04:55;12.20;64.50
13569;DHT22;6856;51.460;7.158;2023-03-14T05:07:29;12.40;65.00
13569;DHT22;6856;51.460;7.158;2023-03-14T05:10:04;12.20;65.10
13569;DHT22;6856;51.460;7.158;2023-03-14T05:12:38;12.10;65.10
13569;DHT22;6856;51.460;7.158;2023-03-14T05:15:12;12.10;65.10
13569;DHT22;6856;51.460;7.158;2023-03-14T05:17:46;12.10;65.20
13569;DHT22;6856;51.460;7.158;2023-03-14T05:20:23;12.00;65.60
13569;DHT22;6856;51.460;7.158;2023-03-14T05:22:58;12.00;65.40
13569;DHT22;6856;51.460;7.158;2023-03-14T05:25:32;12.00;66.00
13569;DHT22;6856;51.460;7.158;2023-03-14T05:28:07;11.90;66.00
13569;DHT22;6856;51.460;7.158;2023-03-14T05:30:41;11.90;66.10
13569;DHT22;6856;51.460;7.158;2023-03-14T05:33:15;11.90;66.00
13569;DHT22;6856;51.460;7.158;2023-03-14T05:35:51;11.90;66.30
13569;DHT22;6856;51.460;7.158;2023-03-14T05:38:25;11.90;66.20
13569;DHT22;6856;51.460;7.158;2023-03-14T05:41:00;11.80;66.30
13569;DHT22;6856;51.460;7.158;2023-03-14T05:43:34;11.80;66.10
13569;DHT22;6856;51.460;7.158;2023-03-14T05:46:08;11.90;67.00
13569;DHT22;6856;51.460;7.158;2023-03-14T05:48:42;11.90;66.80
13569;DHT22;6856;51.460;7.158;2023-03-14T05:51:17;11.90;66.70
13569;DHT22;6856;51.460;7.158;2023-03-14T05:53:51;11.80;67.00
13569;DHT22;6856;51.460;7.158;2023-03-14T05:56:25;11.90;67.00
13569;DHT22;6856;51.460;7.158;2023-03-14T05:58:59;11.90;67.30
13569;DHT22;6856;51.460;7.158;2023-03-14T06:01:35;11.90;67.20
13569;DHT22;6856;51.460;7.158;2023-03-14T06:04:09;11.90;67.40
13569;DHT22;6856;51.460;7.158;2023-03-14T06:06:45;12.00;67.50
13569;DHT22;6856;51.460;7.158;2023-03-14T06:09:18;11.90;67.60
13569;DHT22;6856;51.460;7.158;2023-03-14T06:11:55;11.90;67.60
13569;DHT22;6856;51.460;7.158;2023-03-14T06:14:29;11.90;67.90
13569;DHT22;6856;51.460;7.158;2023-03-14T06:17:03;11.90;68.00
13569;DHT22;6856;51.460;7.158;2023-03-14T06:19:37;11.90;68.10
13569;DHT22;6856;51.460;7.158;2023-03-14T06:22:13;11.90;68.20
13569;DHT22;6856;51.460;7.158;2023-03-14T06:24:47;12.00;68.30
13569;DHT22;6856;51.460;7.158;2023-03-14T06:27:21;12.00;68.40
13569;DHT22;6856;51.460;7.158;2023-03-14T06:29:55;12.00;68.50
13569;DHT22;6856;51.460;7.158;2023-03-14T06:32:29;12.00;68.50
13569;DHT22;6856;51.460;7.158;2023-03-14T06:35:03;12.00;68.70
13569;DHT22;6856;51.460;7.158;2023-03-14T06:37:39;12.10;68.90
13569;DHT22;6856;51.460;7.158;2023-03-14T06:40:13;12.10;68.70
13569;DHT22;6856;51.460;7.158;2023-03-14T06:42:49;12.10;68.90
13569;DHT22;6856;51.460;7.158;2023-03-14T06:45:23;12.10;68.70
13569;DHT22;6856;51.460;7.158;2023-03-14T06:47:57;12.10;69.00
13569;DHT22;6856;51.460;7.158;2023-03-14T06:50:31;12.10;69.20
13569;DHT22;6856;51.460;7.158;2023-03-14T06:53:07;12.10;69.10
13569;DHT22;6856;51.460;7.158;2023-03-14T06:55:42;12.30;68.90
13569;DHT22;6856;51.460;7.158;2023-03-14T06:58:17;12.20;69.40
13569;DHT22;6856;51.460;7.158;2023-03-14T07:00:53;12.20;69.50
13569;DHT22;6856;51.460;7.158;2023-03-14T07:03:29;12.20;69.40
13569;DHT22;6856;51.460;7.158;2023-03-14T07:06:03;12.50;69.40
13569;DHT22;6856;51.460;7.158;2023-03-14T07:08:39;12.30;69.50
13569;DHT22;6856;51.460;7.158;2023-03-14T07:11:14;12.20;69.30
13569;DHT22;6856;51.460;7.158;2023-03-14T07:13:48;12.30;69.20
13569;DHT22;6856;51.460;7.158;2023-03-14T07:16:23;12.30;69.40
13569;DHT22;6856;51.460;7.158;2023-03-14T07:19:01;12.30;69.40
13569;DHT22;6856;51.460;7.158;2023-03-14T07:21:36;12.30;69.50
13569;DHT22;6856;51.460;7.158;2023-03-14T07:24:12;12.40;69.60
13569;DHT22;6856;51.460;7.158;2023-03-14T07:26:46;12.40;69.40
13569;DHT22;6856;51.460;7.158;2023-03-14T07:29:21;12.40;69.70
13569;DHT22;6856;51.460;7.158;2023-03-14T07:31:55;12.40;69.10
13569;DHT22;6856;51.460;7.158;2023-03-14T07:34:29;12.50;69.50
13569;DHT22;6856;51.460;7.158;2023-03-14T07:37:03;12.50;69.80
13569;DHT22;6856;51.460;7.158;2023-03-14T07:39:38;12.50;69.60
13569;DHT22;6856;51.460;7.158;2023-03-14T07:42:12;12.80;69.80
13569;DHT22;6856;51.460;7.158;2023-03-14T07:44:46;12.60;69.60
13569;DHT22;6856;51.460;7.158;2023-03-14T07:47:23;12.60;69.00
13569;DHT22;6856;51.460;7.158;2023-03-14T07:49:58;12.60;69.50
13569;DHT22;6856;51.460;7.158;2023-03-14T07:52:32;12.60;69.50
13569;DHT22;6856;51.460;7.158;2023-03-14T07:55:10;12.60;69.40
13569;DHT22;6856;51.460;7.158;2023-03-14T07:57:45;12.60;69.60
13569;DHT22;6856;51.460;7.158;2023-03-14T08:00:21;12.70;69.80
13569;DHT22;6856;51.460;7.158;2023-03-14T08:02:56;12.70;69.60
13569;DHT22;6856;51.460;7.158;2023-03-14T08:05:29;12.70;69.60
13569;DHT22;6856;51.460;7.158;2023-03-14T08:08:04;12.70;69.70
13569;DHT22;6856;51.460;7.158;2023-03-14T08:10:39;12.70;69.90
13569;DHT22;6856;51.460;7.158;2023-03-14T08:13:17;12.70;69.50
13569;DHT22;6856;51.460;7.158;2023-03-14T08:15:53;12.70;70.00
13569;DHT22;6856;51.460;7.158;2023-03-14T08:18:28;12.70;69.60
13569;DHT22;6856;51.460;7.158;2023-03-14T08:21:02;12.70;69.80
13569;DHT22;6856;51.460;7.158;2023-03-14T08:23:37;12.80;70.10
13569;DHT22;6856;51.460;7.158;2023-03-14T08:26:13;12.80;70.10
13569;DHT22;6856;51.460;7.158;2023-03-14T08:28:47;12.80;70.00
13569;DHT22;6856;51.460;7.158;2023-03-14T08:31:22;12.80;70.30
13569;DHT22;6856;51.460;7.158;2023-03-14T08:33:58;12.80;70.20
13569;DHT22;6856;51.460;7.158;2023-03-14T08:36:35;12.90;70.50
13569;DHT22;6856;51.460;7.158;2023-03-14T08:39:11;12.90;70.50
13569;DHT22;6856;51.460;7.158;2023-03-14T08:41:49;12.90;69.90
13569;DHT22;6856;51.460;7.158;2023-03-14T08:44:23;13.10;70.50
13569;DHT22;6856;51.460;7.158;2023-03-14T08:46:58;12.90;70.40
13569;DHT22;6856;51.460;7.158;2023-03-14T08:49:32;12.90;70.30
13569;DHT22;6856;51.460;7.158;2023-03-14T08:52:07;12.90;70.70
13569;DHT22;6856;51.460;7.158;2023-03-14T08:54:41;13.00;70.90
13569;DHT22;6856;51.460;7.158;2023-03-14T08:57:18;13.00;70.90
13569;DHT22;6856;51.460;7.158;2023-03-14T08:59:56;13.00;71.00
13569;DHT22;6856;51.460;7.158;2023-03-14T09:02:31;13.10;71.20
13569;DHT22;6856;51.460;7.158;2023-03-14T09:05:05;13.10;70.90
13569;DHT22;6856;51.460;7.158;2023-03-14T09:07:42;13.10;71.10
13569;DHT22;6856;51.460;7.158;2023-03-14T09:10:18;13.10;70.90
13569;DHT22;6856;51.460;7.158;2023-03-14T09:12:54;13.10;71.40
13569;DHT22;6856;51.460;7.158;2023-03-14T09:15:29;13.30;70.80
13569;DHT22;6856;51.460;7.158;2023-03-14T09:18:03;13.10;70.40
13569;DHT22;6856;51.460;7.158;2023-03-14T09:20:37;13.10;70.50
13569;DHT22;6856;51.460;7.158;2023-03-14T09:23:14;13.10;70.70
13569;DHT22;6856;51.460;7.158;2023-03-14T09:25:48;13.10;70.30
13569;DHT22;6856;51.460;7.158;2023-03-14T09:28:24;13.10;70.30
13569;DHT22;6856;51.460;7.158;2023-03-14T09:31:06;13.10;70.40
13569;DHT22;6856;51.460;7.158;2023-03-14T09:33:41;13.10;70.30
13569;DHT22;6856;51.460;7.158;2023-03-14T09:36:15;13.10;70.10
13569;DHT22;6856;51.460;7.158;2023-03-14T09:38:50;13.10;69.80
13569;DHT22;6856;51.460;7.158;2023-03-14T09:41:26;13.00;69.40
13569;DHT22;6856;51.460;7.158;2023-03-14T09:44:06;13.00;68.80
13569;DHT22;6856;51.460;7.158;2023-03-14T09:46:50;13.20;68.30
13569;DHT22;6856;51.460;7.158;2023-03-14T09:49:28;12.80;68.50
13569;DHT22;6856;51.460;7.158;2023-03-14T09:52:11;12.70;67.50
13569;DHT22;6856;51.460;7.158;2023-03-14T09:54:50;12.60;67.30
13569;DHT22;6856;51.460;7.158;2023-03-14T09:57:27;12.50;67.30
13569;DHT22;6856;51.460;7.158;2023-03-14T10:00:09;12.40;67.10
13569;DHT22;6856;51.460;7.158;2023-03-14T10:02:51;12.30;67.60
13569;DHT22;6856;51.460;7.158;2023-03-14T10:05:28;12.30;67.60
13569;DHT22;6856;51.460;7.158;2023-03-14T10:08:02;12.20;67.40
13569;DHT22;6856;51.460;7.158;2023-03-14T10:10:36;12.10;67.60
13569;DHT22;6856;51.460;7.158;2023-03-14T10:13:15;12.10;67.50
13569;DHT22;6856;51.460;7.158;2023-03-14T10:15:59;12.00;67.50
13569;DHT22;6856;51.460;7.158;2023-03-14T10:18:35;11.90;67.60
13569;DHT22;6856;51.460;7.158;2023-03-14T10:21:20;11.90;67.50
13569;DHT22;6856;51.460;7.158;2023-03-14T10:24:08;11.80;68.00
13569;DHT22;6856;51.460;7.158;2023-03-14T10:26:54;11.80;67.90
13569;DHT22;6856;51.460;7.158;2023-03-14T10:29:34;11.80;68.00
13569;DHT22;6856;51.460;7.158;2023-03-14T10:32:32;11.70;68.70
13569;DHT22;6856;51.460;7.158;2023-03-14T10:35:21;11.70;68.10
13569;DHT22;6856;51.460;7.158;2023-03-14T10:37:57;11.70;68.20
13569;DHT22;6856;51.460;7.158;2023-03-14T10:40:40;11.70;67.40
13569;DHT22;6856;51.460;7.158;2023-03-14T10:43:23;11.60;68.10
13569;DHT22;6856;51.460;7.158;2023-03-14T10:46:05;11.60;68.00
13569;DHT22;6856;51.460;7.158;2023-03-14T10:48:44;11.60;67.80
13569;DHT22;6856;51.460;7.158;2023-03-14T10:51:20;11.50;67.60
13569;DHT22;6856;51.460;7.158;2023-03-14T10:54:01;11.50;67.50
13569;DHT22;6856;51.460;7.158;2023-03-14T10:56:37;11.40;67.40
13569;DHT22;6856;51.460;7.158;2023-03-14T10:59:15;11.40;67.30
13569;DHT22;6856;51.460;7.158;2023-03-14T11:01:55;11.30;67.20
13569;DHT22;6856;51.460;7.158;2023-03-14T11:04:48;11.30;67.30
13569;DHT22;6856;51.460;7.158;2023-03-14T11:07:35;11.20;67.00
13569;DHT22;6856;51.460;7.158;2023-03-14T11:10:19;11.20;66.80
13569;DHT22;6856;51.460;7.158;2023-03-14T11:13:04;11.10;66.50
13569;DHT22;6856;51.460;7.158;2023-03-14T11:16:01;11.10;66.50
13569;DHT22;6856;51.460;7.158;2023-03-14T11:22:14;11.00;67.10
13569;DHT22;6856;51.460;7.158;2023-03-14T11:25:15;10.90;67.70
13569;DHT22;6856;51.460;7.158;2023-03-14T11:28:00;10.90;66.90
13569;DHT22;6856;51.460;7.158;2023-03-14T11:30:50;10.90;66.70
13569;DHT22;6856;51.460;7.158;2023-03-14T11:33:28;10.90;66.40
13569;DHT22;6856;51.460;7.158;2023-03-14T11:36:10;10.90;66.20
13569;DHT22;6856;51.460;7.158;2023-03-14T11:38:50;10.90;66.00
13569;DHT22;6856;51.460;7.158;2023-03-14T11:41:31;10.90;65.80
13569;DHT22;6856;51.460;7.158;2023-03-14T11:44:16;10.90;65.90
13569;DHT22;6856;51.460;7.158;2023-03-14T11:46:56;10.90;65.90
13569;DHT22;6856;51.460;7.158;2023-03-14T11:49:38;10.90;65.80
13569;DHT22;6856;51.460;7.158;2023-03-14T11:52:20;10.90;65.60
13569;DHT22;6856;51.460;7.158;2023-03-14T11:55:04;10.90;65.30
13569;DHT22;6856;51.460;7.158;2023-03-14T11:57:45;10.90;65.40
13569;DHT22;6856;51.460;7.158;2023-03-14T12:00:23;10.90;65.30
13569;DHT22;6856;51.460;7.158;2023-03-14T12:03:02;10.90;64.90
13569;DHT22;6856;51.460;7.158;2023-03-14T12:05:59;10.90;64.60
13569;DHT22;6856;51.460;7.158;2023-03-14T12:08:47;10.80;64.50
13569;DHT22;6856;51.460;7.158;2023-03-14T12:11:38;10.80;64.30
13569;DHT22;6856;51.460;7.158;2023-03-14T12:14:22;10.80;64.60
13569;DHT22;6856;51.460;7.158;2023-03-14T12:16:59;10.70;64.60
13569;DHT22;6856;51.460;7.158;2023-03-14T12:19:39;10.80;64.70
13569;DHT22;6856;51.460;7.158;2023-03-14T12:22:23;10.60;64.80
13569;DHT22;6856;51.460;7.158;2023-03-14T12:25:04;10.60;64.90
13569;DHT22;6856;51.460;7.158;2023-03-14T12:28:16;10.60;65.10
13569;DHT22;6856;51.460;7.158;2023-03-14T12:30:54;10.60;65.50
13569;DHT22;6856;51.460;7.158;2023-03-14T12:33:30;10.80;65.50
13569;DHT22;6856;51.460;7.158;2023-03-14T12:39:38;10.60;66.30
13569;DHT22;6856;51.460;7.158;2023-03-14T12:42:22;11.00;67.20
13569;DHT22;6856;51.460;7.158;2023-03-14T12:45:27;10.80;65.80
13569;DHT22;6856;51.460;7.158;2023-03-14T12:48:09;10.80;65.30
13569;DHT22;6856;51.460;7.158;2023-03-14T12:50:54;10.80;65.00
13569;DHT22;6856;51.460;7.158;2023-03-14T12:59:50;10.90;65.10
13569;DHT22;6856;51.460;7.158;2023-03-14T13:02:28;10.90;64.70
13569;DHT22;6856;51.460;7.158;2023-03-14T13:05:14;11.10;64.50
13569;DHT22;6856;51.460;7.158;2023-03-14T13:08:08;11.10;64.30
13569;DHT22;6856;51.460;7.158;2023-03-14T13:10:48;10.90;63.90
13569;DHT22;6856;51.460;7.158;2023-03-14T13:13:24;10.90;63.90
13569;DHT22;6856;51.460;7.158;2023-03-14T13:16:01;10.80;63.80
13569;DHT22;6856;51.460;7.158;2023-03-14T13:18:42;10.80;64.00
13569;DHT22;6856;51.460;7.158;2023-03-14T13:21:19;11.00;64.40
13569;DHT22;6856;51.460;7.158;2023-03-14T13:23:57;10.40;64.00
13569;DHT22;6856;51.460;7.158;2023-03-14T13:26:35;10.60;64.20
13569;DHT22;6856;51.460;7.158;2023-03-14T13:29:16;10.60;64.50
13569;DHT22;6856;51.460;7.158;2023-03-14T13:31:53;10.60;65.20
13569;DHT22;6856;51.460;7.158;2023-03-14T13:34:32;10.60;65.60
13569;DHT22;6856;51.460;7.158;2023-03-14T13:37:15;10.70;65.80
13569;DHT22;6856;51.460;7.158;2023-03-14T13:39:51;10.80;65.80
13569;DHT22;6856;51.460;7.158;2023-03-14T13:42:29;10.80;65.40
13569;DHT22;6856;51.460;7.158;2023-03-14T13:45:04;10.80;65.80
13569;DHT22;6856;51.460;7.158;2023-03-14T13:47:39;10.80;64.90
13569;DHT22;6856;51.460;7.158;2023-03-14T13:50:17;10.80;64.60
13569;DHT22;6856;51.460;7.158;2023-03-14T13:52:55;10.80;64.50
13569;DHT22;6856;51.460;7.158;2023-03-14T13:55:30;10.80;64.70
13569;DHT22;6856;51.460;7.158;2023-03-14T13:58:04;10.80;64.70
13569;DHT22;6856;51.460;7.158;2023-03-14T14:00:38;10.80;65.00
13569;DHT22;6856;51.460;7.158;2023-03-14T14:03:13;10.90;65.40
13569;DHT22;6856;51.460;7.158;2023-03-14T14:05:49;11.00;65.80
13569;DHT22;6856;51.460;7.158;2023-03-14T14:08:25;11.10;66.00
13569;DHT22;6856;51.460;7.158;2023-03-14T14:11:01;11.10;65.70
13569;DHT22;6856;51.460;7.158;2023-03-14T14:13:37;11.30;65.30
13569;DHT22;6856;51.460;7.158;2023-03-14T14:16:12;11.30;65.00
13569;DHT22;6856;51.460;7.158;2023-03-14T14:18:51;11.50;65.00
13569;DHT22;6856;51.460;7.158;2023-03-14T14:21:28;11.60;64.40
13569;DHT22;6856;51.460;7.158;2023-03-14T14:24:04;11.70;63.80
13569;DHT22;6856;51.460;7.158;2023-03-14T14:26:40;11.70;63.40
13569;DHT22;6856;51.460;7.158;2023-03-14T14:29:27;11.80;62.70
13569;DHT22;6856;51.460;7.158;2023-03-14T14:32:08;11.80;61.70
13569;DHT22;6856;51.460;7.158;2023-03-14T14:34:55;11.90;61.20
13569;DHT22;6856;51.460;7.158;2023-03-14T14:37:41;11.90;60.50
13569;DHT22;6856;51.460;7.158;2023-03-14T14:40:21;11.80;59.60
13569;DHT22;6856;51.460;7.158;2023-03-14T14:43:03;11.80;59.30
13569;DHT22;6856;51.460;7.158;2023-03-14T14:45:38;11.80;58.60
13569;DHT22;6856;51.460;7.158;2023-03-14T14:48:20;11.80;58.20
13569;DHT22;6856;51.460;7.158;2023-03-14T14:50:58;11.70;58.30
13569;DHT22;6856;51.460;7.158;2023-03-14T14:53:38;11.70;58.10
13569;DHT22;6856;51.460;7.158;2023-03-14T14:56:17;11.80;58.50
13569;DHT22;6856;51.460;7.158;2023-03-14T14:58:57;11.80;57.60
13569;DHT22;6856;51.460;7.158;2023-03-14T15:01:35;11.80;57.30
13569;DHT22;6856;51.460;7.158;2023-03-14T15:04:13;12.00;58.00
13569;DHT22;6856;51.460;7.158;2023-03-14T15:06:49;11.70;57.10
13569;DHT22;6856;51.460;7.158;2023-03-14T15:09:26;11.70;56.70
13569;DHT22;6856;51.460;7.158;2023-03-14T15:12:00;11.70;56.30
13569;DHT22;6856;51.460;7.158;2023-03-14T15:14:41;11.70;56.20
13569;DHT22;6856;51.460;7.158;2023-03-14T15:17:16;11.70;55.80
13569;DHT22;6856;51.460;7.158;2023-03-14T15:19:49;11.60;55.60
13569;DHT22;6856;51.460;7.158;2023-03-14T15:22:25;11.90;55.60
13569;DHT22;6856;51.460;7.158;2023-03-14T15:25:02;11.50;55.80
13569;DHT22;6856;51.460;7.158;2023-03-14T15:27:37;11.50;55.20
13569;DHT22;6856;51.460;7.158;2023-03-14T15:30:15;11.50;55.00
13569;DHT22;6856;51.460;7.158;2023-03-14T15:32:51;11.40;54.80
13569;DHT22;6856;51.460;7.158;2023-03-14T15:35:26;11.40;54.50
13569;DHT22;6856;51.460;7.158;2023-03-14T15:38:00;11.40;54.40
13569;DHT22;6856;51.460;7.158;2023-03-14T15:40:37;11.30;54.30
13569;DHT22;6856;51.460;7.158;2023-03-14T15:43:11;11.30;53.90
13569;DHT22;6856;51.460;7.158;2023-03-14T15:45:45;11.30;54.00
13569;DHT22;6856;51.460;7.158;2023-03-14T15:48:21;11.30;53.90
13569;DHT22;6856;51.460;7.158;2023-03-14T15:50:55;11.20;53.30
13569;DHT22;6856;51.460;7.158;2023-03-14T15:53:30;11.30;53.40
13569;DHT22;6856;51.460;7.158;2023-03-14T15:56:11;11.10;53.20
13569;DHT22;6856;51.460;7.158;2023-03-14T15:58:46;11.00;52.90
13569;DHT22;6856;51.460;7.158;2023-03-14T16:01:21;11.00;52.70
13569;DHT22;6856;51.460;7.158;2023-03-14T16:03:55;10.90;52.60
13569;DHT22;6856;51.460;7.158;2023-03-14T16:06:29;10.90;52.20
13569;DHT22;6856;51.460;7.158;2023-03-14T16:09:09;10.80;52.10
13569;DHT22;6856;51.460;7.158;2023-03-14T16:11:45;10.70;51.80
13569;DHT22;6856;51.460;7.158;2023-03-14T16:14:20;10.70;51.60
13569;DHT22;6856;51.460;7.158;2023-03-14T16:16:56;10.90;51.80
13569;DHT22;6856;51.460;7.158;2023-03-14T16:19:31;10.60;51.70
13569;DHT22;6856;51.460;7.158;2023-03-14T16:22:06;10.50;51.50
13569;DHT22;6856;51.460;7.158;2023-03-14T16:24:41;10.50;51.80
13569;DHT22;6856;51.460;7.158;2023-03-14T16:27:17;10.50;51.80
13569;DHT22;6856;51.460;7.158;2023-03-14T16:29:51;10.60;51.60
13569;DHT22;6856;51.460;7.158;2023-03-14T16:32:26;10.40;51.20
13569;DHT22;6856;51.460;7.158;2023-03-14T16:35:01;10.70;51.40
13569;DHT22;6856;51.460;7.158;2023-03-14T16:37:35;10.40;52.00
13569;DHT22;6856;51.460;7.158;2023-03-14T16:40:10;10.30;51.40
13569;DHT22;6856;51.460;7.158;2023-03-14T16:42:48;10.30;51.70
13569;DHT22;6856;51.460;7.158;2023-03-14T16:45:43;10.30;51.80
13569;DHT22;6856;51.460;7.158;2023-03-14T16:48:19;10.30;52.00
13569;DHT22;6856;51.460;7.158;2023-03-14T16:50:54;10.30;52.00
13569;DHT22;6856;51.460;7.158;2023-03-14T16:53:28;10.30;51.80
13569;DHT22;6856;51.460;7.158;2023-03-14T16:56:02;10.20;51.70
13569;DHT22;6856;51.460;7.158;2023-03-14T16:58:38;10.20;51.20
13569;DHT22;6856;51.460;7.158;2023-03-14T17:01:14;10.20;51.30
13569;DHT22;6856;51.460;7.158;2023-03-14T17:03:54;10.20;51.30
13569;DHT22;6856;51.460;7.158;2023-03-14T17:06:29;10.20;51.00